createdAt,value
2018-04-16T00:01:49.175Z,7.10
2018-04-16T00:06:32.497Z,6.70
2018-04-16T00:11:15.830Z,9.23
2018-04-16T00:16:00.004Z,8.60
2018-04-16T00:20:43.298Z,8.67
2018-04-16T00:25:26.643Z,8.37
2018-04-16T00:30:09.963Z,9.87
2018-04-16T00:34:58.859Z,8.10
2018-04-16T00:39:47.773Z,7.73
2018-04-16T00:44:38.370Z,7.37
2018-04-16T00:49:27.303Z,8.20
2018-04-16T00:54:23.969Z,8.90
2018-04-16T00:59:13.737Z,7.47
2018-04-16T01:04:02.731Z,10.17
2018-04-16T01:08:52.348Z,6.10
2018-04-16T01:13:41.357Z,6.67
2018-04-16T01:18:30.176Z,6.17
2018-04-16T01:23:19.049Z,8.87
2018-04-16T01:28:07.933Z,7.00
2018-04-16T01:32:56.923Z,8.90
2018-04-16T01:37:45.830Z,9.77
2018-04-16T01:42:34.877Z,10.17
2018-04-16T01:47:23.851Z,8.83
2018-04-16T01:52:12.714Z,8.17
2018-04-16T01:57:01.669Z,8.47
2018-04-16T02:01:50.600Z,11.13
2018-04-16T02:12:01.777Z,10.80
2018-04-16T02:16:50.774Z,9.87
2018-04-16T02:21:40.587Z,8.33
2018-04-16T02:26:29.558Z,11.70
2018-04-16T02:31:18.483Z,11.00
2018-04-16T02:36:07.603Z,14.80
2018-04-16T02:40:57.539Z,15.13
2018-04-16T02:45:46.518Z,17.87
2018-04-16T02:50:36.346Z,19.07
2018-04-16T03:00:46.383Z,18.70
2018-04-16T03:05:36.194Z,19.33
2018-04-16T03:10:25.075Z,21.00
2018-04-16T03:15:14.114Z,17.83
2018-04-16T03:20:03.777Z,17.23
2018-04-16T03:24:52.809Z,18.57
2018-04-16T03:29:41.698Z,20.53
2018-04-16T03:34:30.771Z,19.00
2018-04-16T03:39:19.788Z,20.70
2018-04-16T03:44:09.062Z,20.47
2018-04-16T03:48:58.805Z,20.77
2018-04-16T03:53:44.705Z,20.97
2018-04-16T03:58:28.062Z,18.27
2018-04-16T04:03:12.219Z,23.17
2018-04-16T04:07:55.793Z,22.77
2018-04-16T04:12:39.114Z,18.90
2018-04-16T04:17:22.526Z,19.13
2018-04-16T04:22:06.006Z,27.20
2018-04-16T04:27:01.159Z,27.27
2018-04-16T04:31:44.555Z,26.07
2018-04-16T04:36:28.486Z,22.90
2018-04-16T04:41:12.051Z,22.43
2018-04-16T04:45:55.513Z,22.07
2018-04-16T04:50:38.932Z,19.97
2018-04-16T04:55:22.350Z,20.77
2018-04-16T05:00:05.759Z,21.60
2018-04-16T05:04:49.885Z,20.43
2018-04-16T05:09:33.354Z,19.77
2018-04-16T05:14:18.880Z,20.30
2018-04-16T05:19:02.384Z,19.37
2018-04-16T05:23:46.538Z,20.33
2018-04-16T05:28:31.442Z,23.50
2018-04-16T05:33:15.556Z,24.50
2018-04-16T05:37:58.947Z,24.93
2018-04-16T05:42:42.359Z,23.57
2018-04-16T05:47:25.765Z,26.23
2018-04-16T05:52:09.151Z,27.57
2018-04-16T05:56:53.287Z,32.13
2018-04-16T06:01:36.755Z,37.67
2018-04-16T06:06:20.151Z,43.67
2018-04-16T06:11:03.612Z,53.20
2018-04-16T06:15:47.698Z,53.23
2018-04-16T06:20:31.108Z,53.27
2018-04-16T06:25:14.565Z,56.30
2018-04-16T06:29:57.926Z,59.17
2018-04-16T06:34:42.131Z,53.93
2018-04-16T06:39:25.586Z,51.47
2018-04-16T06:44:08.909Z,65.72
2018-04-16T06:48:53.024Z,48.00
2018-04-16T06:53:36.334Z,47.93
2018-04-16T06:58:19.691Z,47.13
2018-04-16T07:03:03.097Z,47.07
2018-04-16T07:07:46.431Z,51.53
2018-04-16T07:12:29.766Z,52.33
2018-04-16T07:17:13.931Z,48.73
2018-04-16T07:21:57.341Z,48.57
2018-04-16T07:26:41.573Z,45.80
2018-04-16T07:31:25.006Z,48.00
2018-04-16T07:36:08.341Z,42.57
2018-04-16T07:40:51.684Z,45.47
2018-04-16T07:45:35.145Z,41.83
2018-04-16T07:50:18.508Z,43.50
2018-04-16T07:55:02.608Z,42.27
2018-04-16T07:59:45.908Z,45.30
2018-04-16T08:04:30.023Z,46.03
2018-04-16T08:09:13.347Z,51.20
2018-04-16T08:13:57.457Z,51.20
2018-04-16T08:18:41.595Z,48.30
2018-04-16T08:23:24.915Z,49.73
2018-04-16T08:28:08.242Z,52.23
2018-04-16T08:32:51.590Z,47.83
2018-04-16T08:37:34.933Z,50.20
2018-04-16T08:42:18.363Z,52.53
2018-04-16T08:47:01.706Z,46.53
2018-04-16T08:51:45.014Z,48.50
2018-04-16T08:56:29.125Z,46.60
2018-04-16T09:01:12.456Z,38.77
2018-04-16T09:05:55.840Z,40.50
2018-04-16T09:10:39.199Z,36.23
2018-04-16T09:15:23.301Z,39.00
2018-04-16T09:20:06.616Z,37.97
2018-04-16T09:24:50.014Z,36.57
2018-04-16T09:29:34.089Z,37.17
2018-04-16T09:34:18.338Z,37.03
2018-04-16T09:39:02.546Z,36.73
2018-04-16T09:43:45.858Z,40.13
2018-04-16T09:48:29.216Z,35.43
2018-04-16T09:53:12.593Z,35.73
2018-04-16T09:57:55.972Z,33.13
2018-04-16T10:02:47.981Z,30.57
2018-04-16T10:07:31.296Z,29.70
2018-04-16T10:12:14.652Z,31.40
2018-04-16T10:16:57.997Z,31.93
2018-04-16T10:21:41.352Z,29.63
2018-04-16T10:26:24.772Z,32.87
2018-04-16T10:31:08.132Z,33.00
2018-04-16T10:35:51.477Z,29.30
2018-04-16T10:40:34.847Z,32.50
2018-04-16T10:45:18.947Z,32.73
2018-04-16T10:50:02.269Z,32.10
2018-04-16T10:54:45.675Z,33.70
2018-04-16T10:59:29.082Z,33.70
2018-04-16T11:04:12.435Z,34.53
2018-04-16T11:08:55.724Z,33.40
2018-04-16T11:13:39.085Z,34.37
2018-04-16T11:18:22.443Z,38.03
2018-04-16T11:23:05.886Z,38.27
2018-04-16T11:27:49.872Z,35.57
2018-04-16T11:32:33.629Z,36.47
2018-04-16T11:37:17.783Z,35.23
2018-04-16T11:42:01.211Z,34.60
2018-04-16T11:46:44.628Z,36.83
2018-04-16T11:51:28.057Z,35.77
2018-04-16T11:56:11.426Z,32.93
2018-04-16T12:00:54.826Z,39.73
2018-04-16T12:05:38.977Z,36.07
2018-04-16T12:10:22.473Z,32.40
2018-04-16T12:15:06.033Z,32.73
2018-04-16T12:19:49.395Z,32.17
2018-04-16T12:24:33.525Z,29.07
2018-04-16T12:29:34.285Z,33.20
2018-04-16T12:34:23.502Z,32.47
2018-04-16T12:39:06.963Z,32.63
2018-04-16T12:43:50.299Z,33.10
2018-04-16T12:48:33.662Z,38.33
2018-04-16T12:53:22.961Z,36.27
2018-04-16T12:58:12.980Z,34.93
2018-04-16T13:03:02.199Z,36.20
2018-04-16T13:07:51.503Z,33.77
2018-04-16T13:12:34.853Z,34.93
2018-04-16T13:17:18.234Z,34.17
2018-04-16T13:22:01.585Z,36.97
2018-04-16T13:26:50.690Z,37.97
2018-04-16T13:31:34.061Z,37.43
2018-04-16T13:36:17.402Z,38.67
2018-04-16T13:41:11.519Z,37.93
2018-04-16T13:46:00.710Z,33.80
2018-04-16T13:50:44.070Z,33.00
2018-04-16T13:55:28.281Z,31.67
2018-04-16T14:00:18.609Z,33.20
2018-04-16T14:05:02.773Z,32.83
2018-04-16T14:09:46.147Z,30.47
2018-04-16T14:14:41.003Z,32.00
2018-04-16T14:19:30.318Z,35.53
2018-04-16T14:24:13.688Z,33.30
2018-04-16T14:29:02.874Z,31.37
2018-04-16T14:33:46.240Z,27.77
2018-04-16T14:38:41.225Z,27.37
2018-04-16T14:43:30.215Z,26.33
2018-04-16T14:48:13.834Z,26.97
2018-04-16T14:53:02.931Z,22.23
2018-04-16T14:57:52.911Z,21.57
2018-04-16T15:02:42.026Z,18.80
2018-04-16T15:07:31.241Z,22.03
2018-04-16T15:12:14.595Z,21.87
2018-04-16T15:16:57.909Z,23.80
2018-04-16T15:21:41.268Z,23.30
2018-04-16T15:26:24.625Z,24.50
2018-04-16T15:31:08.798Z,23.73
2018-04-16T15:35:52.177Z,22.57
2018-04-16T15:45:54.957Z,26.23
2018-04-16T15:50:39.235Z,27.13
2018-04-16T15:55:22.897Z,29.93
2018-04-16T16:00:06.999Z,26.77
2018-04-16T16:04:50.359Z,28.63
2018-04-16T16:09:33.736Z,29.30
2018-04-16T16:14:23.898Z,31.10
2018-04-16T16:19:10.407Z,33.00
2018-04-16T16:23:55.791Z,32.73
2018-04-16T16:28:39.299Z,32.33
2018-04-16T16:33:23.980Z,31.93
2018-04-16T16:38:07.417Z,27.40
2018-04-16T16:42:54.220Z,29.57
2018-04-16T16:47:38.499Z,33.43
2018-04-16T16:52:22.697Z,30.03
2018-04-16T16:57:06.220Z,30.47
2018-04-16T17:01:49.735Z,35.10
2018-04-16T17:06:33.960Z,34.87
2018-04-16T17:11:17.437Z,36.00
2018-04-16T17:16:01.567Z,38.87
2018-04-16T17:20:44.954Z,39.40
2018-04-16T17:25:28.305Z,41.33
2018-04-16T17:30:11.772Z,38.97
2018-04-16T17:34:55.946Z,43.90
2018-04-16T17:39:39.350Z,42.73
2018-04-16T17:44:22.725Z,40.27
2018-04-16T17:49:06.246Z,39.27
2018-04-16T17:53:49.592Z,53.63
2018-04-16T17:58:33.033Z,45.03
2018-04-16T18:03:16.650Z,55.42
2018-04-16T18:08:00.104Z,59.53
2018-04-16T18:12:43.697Z,38.73
2018-04-16T18:17:27.177Z,42.13
2018-04-16T18:22:10.798Z,37.83
2018-04-16T18:26:55.137Z,38.03
2018-04-16T18:31:38.657Z,39.50
2018-04-16T18:36:23.126Z,46.43
2018-04-16T18:41:06.992Z,44.43
2018-04-16T18:45:50.413Z,47.83
2018-04-16T18:50:33.822Z,46.50
2018-04-16T18:55:21.381Z,49.47
2018-04-16T19:00:11.215Z,44.93
2018-04-16T19:04:54.821Z,45.87
2018-04-16T19:09:41.194Z,47.30
2018-04-16T19:14:25.066Z,50.43
2018-04-16T19:19:11.734Z,52.50
2018-04-16T19:24:02.727Z,52.50
2018-04-16T19:33:48.145Z,43.90
2018-04-16T19:39:07.502Z,45.43
2018-04-16T19:50:02.467Z,39.93
2018-04-16T19:54:50.721Z,37.43
2018-04-16T19:59:36.700Z,34.00
2018-04-16T20:04:20.146Z,32.90
2018-04-16T20:09:03.635Z,33.67
2018-04-16T20:13:47.100Z,33.03
2018-04-16T20:18:30.843Z,28.57
2018-04-16T20:23:14.327Z,28.60
2018-04-16T20:27:57.698Z,26.57
2018-04-16T20:32:41.242Z,24.57
2018-04-16T20:37:25.365Z,23.27
2018-04-16T20:42:09.301Z,23.03
2018-04-16T20:46:52.641Z,24.13
2018-04-16T20:51:35.988Z,23.57
2018-04-16T20:56:19.334Z,20.13
2018-04-16T21:01:02.668Z,18.53
2018-04-16T21:05:46.022Z,21.40
2018-04-16T21:10:29.983Z,22.30
2018-04-16T21:15:14.137Z,23.23
2018-04-16T21:19:57.465Z,21.83
2018-04-16T21:24:40.812Z,24.63
2018-04-16T21:29:24.241Z,23.57
2018-04-16T21:34:07.609Z,26.90
2018-04-16T21:38:50.922Z,24.73
2018-04-16T21:43:34.260Z,24.67
2018-04-16T21:48:17.614Z,29.37
2018-04-16T21:53:00.965Z,30.53
2018-04-16T21:57:44.278Z,29.73
2018-04-16T22:02:27.645Z,34.33
2018-04-16T22:07:10.974Z,34.43
2018-04-16T22:11:54.336Z,30.47
2018-04-16T22:16:37.772Z,30.33
2018-04-16T22:21:21.060Z,28.77
2018-04-16T22:26:04.381Z,29.03
2018-04-16T22:30:47.744Z,29.13
2018-04-16T22:35:31.083Z,26.10
2018-04-16T22:40:14.483Z,26.63
2018-04-16T22:44:57.807Z,26.77
2018-04-16T22:49:41.187Z,26.77
2018-04-16T22:54:24.514Z,29.97
2018-04-16T22:59:08.607Z,24.50
2018-04-16T23:03:51.904Z,25.07
2018-04-16T23:08:36.153Z,22.43
2018-04-16T23:13:19.489Z,20.73
2018-04-16T23:18:02.814Z,19.30
2018-04-16T23:22:46.167Z,19.23
2018-04-16T23:27:29.513Z,17.90
2018-04-16T23:32:12.837Z,16.60
2018-04-16T23:36:56.175Z,17.33
2018-04-16T23:41:39.488Z,20.47
2018-04-16T23:46:22.809Z,22.80
2018-04-16T23:51:06.194Z,25.73
2018-04-16T23:55:49.646Z,27.70
